GRSGD EG29-EGPB

Flight info

Callsign GRSGD
Flight time N/A
Altitude 4000
Route WIK EGPA EGEN EGEF
Aircraft P28A/L-SDGRY/S

Departure

Time N/A
Airport EG29

Arrival

Time 2026-04-25 11:55
Airport Sumburgh Airport (EGPB)
Time Latitude Longitude Altitude Speed Heading
2026-04-25 09:38 57.33455 -5.67297 92 ft 0 kts 196°
2026-04-25 09:51 57.33454 -5.67302 92 ft 1 kts 272°
2026-04-25 09:51 57.33461 -5.67298 91 ft 4 kts 40°
2026-04-25 09:51 57.33479 -5.67286 92 ft 1 kts 11°
2026-04-25 09:51 57.33467 -5.67328 92 ft 11 kts 193°
2026-04-25 09:52 57.33362 -5.67375 83 ft 20 kts 194°
2026-04-25 09:52 57.33292 -5.67421 82 ft 3 kts 306°
2026-04-25 09:52 57.33300 -5.67423 85 ft 0 kts 15°
2026-04-25 09:53 57.33348 -5.67400 85 ft 28 kts 14°
2026-04-25 09:54 57.33717 -5.67238 114 ft 76 kts 13°
2026-04-25 09:54 57.34261 -5.67038 349 ft 80 kts 11°
2026-04-25 09:54 57.34802 -5.66808 641 ft 80 kts 14°
2026-04-25 09:54 57.35365 -5.66533 863 ft 90 kts 15°
2026-04-25 09:55 57.35981 -5.66181 1143 ft 94 kts 20°
2026-04-25 09:55 57.36626 -5.65826 1370 ft 98 kts 16°
2026-04-25 09:55 57.37304 -5.65604 1597 ft 100 kts 14°
2026-04-25 09:55 57.37982 -5.65341 1835 ft 99 kts 20°
2026-04-25 09:56 57.38605 -5.64838 2077 ft 97 kts 27°
2026-04-25 09:56 57.39222 -5.64328 2337 ft 99 kts 27°
2026-04-25 09:56 57.39891 -5.63778 2603 ft 110 kts 26°
2026-04-25 09:56 57.40609 -5.63183 2863 ft 115 kts 27°
2026-04-25 09:57 57.41338 -5.62571 3124 ft 115 kts 27°
2026-04-25 09:57 57.41948 -5.61668 3367 ft 111 kts 45°
2026-04-25 09:57 57.42503 -5.60703 3618 ft 108 kts 45°
2026-04-25 09:57 57.43042 -5.59765 3862 ft 104 kts 45°
2026-04-25 09:58 57.43549 -5.58860 4101 ft 99 kts 45°
2026-04-25 09:58 57.44068 -5.57915 4146 ft 115 kts 45°
2026-04-25 09:58 57.44656 -5.56834 4179 ft 120 kts 45°
2026-04-25 09:58 57.45244 -5.55746 4226 ft 120 kts 45°
2026-04-25 09:59 57.45843 -5.54637 4231 ft 122 kts 45°
2026-04-25 09:59 57.46444 -5.53528 4238 ft 122 kts 45°
2026-04-25 09:59 57.47043 -5.52421 4233 ft 121 kts 45°
2026-04-25 09:59 57.47640 -5.51317 4239 ft 121 kts 45°
2026-04-25 10:00 57.48235 -5.50212 4238 ft 121 kts 45°
2026-04-25 10:00 57.48833 -5.49108 4238 ft 121 kts 45°
2026-04-25 10:00 57.49432 -5.48005 4237 ft 121 kts 45°
2026-04-25 10:00 57.50028 -5.46904 4243 ft 121 kts 45°
2026-04-25 10:01 57.50622 -5.45805 4238 ft 121 kts 45°
2026-04-25 10:01 57.51218 -5.44701 4237 ft 120 kts 45°
2026-04-25 10:01 57.51808 -5.43609 4236 ft 119 kts 45°
2026-04-25 10:01 57.52403 -5.42509 4234 ft 119 kts 45°
2026-04-25 10:02 57.52979 -5.41443 4233 ft 118 kts 45°
2026-04-25 10:02 57.53557 -5.40369 4240 ft 117 kts 45°
2026-04-25 10:02 57.54133 -5.39294 4241 ft 117 kts 45°
2026-04-25 10:02 57.54705 -5.38218 4212 ft 119 kts 45°
2026-04-25 10:03 57.55311 -5.37089 4090 ft 126 kts 45°
2026-04-25 10:03 57.55935 -5.35932 4044 ft 124 kts 45°
2026-04-25 10:03 57.56540 -5.34815 4026 ft 122 kts 45°
2026-04-25 10:03 57.57139 -5.33712 4013 ft 120 kts 45°
2026-04-25 10:04 57.57733 -5.32624 4012 ft 119 kts 44°
2026-04-25 10:04 57.58384 -5.31674 4012 ft 119 kts 37°
2026-04-25 10:04 57.59057 -5.30747 4009 ft 119 kts 37°
2026-04-25 10:04 57.59718 -5.29831 4022 ft 118 kts 37°
2026-04-25 10:05 57.60371 -5.28931 4017 ft 116 kts 37°
2026-04-25 10:05 57.61017 -5.28040 4016 ft 116 kts 37°
2026-04-25 10:05 57.61668 -5.27145 4016 ft 117 kts 37°
2026-04-25 10:05 57.62320 -5.26244 4016 ft 116 kts 37°
2026-04-25 10:06 57.62962 -5.25351 4015 ft 117 kts 37°
2026-04-25 10:06 57.63616 -5.24451 4016 ft 117 kts 37°
2026-04-25 10:06 57.64058 -5.23842 4017 ft 117 kts 37°
2026-04-25 10:06 57.64713 -5.22939 4014 ft 117 kts 37°
2026-04-25 10:07 57.65364 -5.22041 4017 ft 117 kts 37°
2026-04-25 10:07 57.66016 -5.21137 4016 ft 117 kts 37°
2026-04-25 10:07 57.66665 -5.20239 4015 ft 116 kts 37°
2026-04-25 10:07 57.67314 -5.19344 4014 ft 116 kts 37°
2026-04-25 10:08 57.67963 -5.18454 4019 ft 116 kts 37°
2026-04-25 10:08 57.68616 -5.17551 4019 ft 117 kts 37°
2026-04-25 10:08 57.69266 -5.16650 4016 ft 116 kts 37°
2026-04-25 10:08 57.69911 -5.15759 4017 ft 115 kts 37°
2026-04-25 10:09 57.70555 -5.14872 4012 ft 115 kts 36°
2026-04-25 10:09 57.71270 -5.14185 4013 ft 116 kts 25°
2026-04-25 10:09 57.72001 -5.13538 4012 ft 116 kts 26°
2026-04-25 10:09 57.72733 -5.12884 4014 ft 117 kts 26°
2026-04-25 10:10 57.73470 -5.12228 4014 ft 118 kts 26°
2026-04-25 10:10 57.74211 -5.11570 4018 ft 119 kts 26°
2026-04-25 10:10 57.74958 -5.10911 4018 ft 118 kts 26°
2026-04-25 10:10 57.75698 -5.10254 4017 ft 117 kts 26°
2026-04-25 10:11 57.76432 -5.09598 4018 ft 117 kts 26°
2026-04-25 10:11 57.77168 -5.08945 4026 ft 117 kts 26°
2026-04-25 10:11 57.77902 -5.08294 4027 ft 116 kts 26°
2026-04-25 10:11 57.78636 -5.07647 4027 ft 117 kts 26°
2026-04-25 10:12 57.79371 -5.06993 4029 ft 117 kts 26°
2026-04-25 10:12 57.80108 -5.06336 4031 ft 118 kts 26°
2026-04-25 10:12 57.81580 -5.05023 4028 ft 116 kts 26°
2026-04-25 10:13 57.82307 -5.04383 4025 ft 116 kts 26°
2026-04-25 10:13 57.83033 -5.03736 4034 ft 117 kts 26°
2026-04-25 10:13 57.83768 -5.03074 4034 ft 117 kts 26°
2026-04-25 10:13 57.84505 -5.02418 4034 ft 117 kts 26°
2026-04-25 10:14 57.85234 -5.01766 4033 ft 115 kts 26°
2026-04-25 10:14 57.85951 -5.01126 4034 ft 114 kts 26°
2026-04-25 10:14 57.86668 -5.00478 4034 ft 115 kts 26°
2026-04-25 10:14 57.87391 -4.99826 4032 ft 115 kts 26°
2026-04-25 10:15 57.88113 -4.99178 4034 ft 115 kts 26°
2026-04-25 10:15 57.88836 -4.98532 4040 ft 115 kts 26°
2026-04-25 10:15 57.89565 -4.97884 4038 ft 115 kts 25°
2026-04-25 10:15 57.90281 -4.97247 4035 ft 113 kts 25°
2026-04-25 10:16 57.90988 -4.96615 4028 ft 113 kts 26°
2026-04-25 10:16 57.91695 -4.95978 4030 ft 113 kts 26°
2026-04-25 10:16 57.92408 -4.95338 4031 ft 114 kts 26°
2026-04-25 10:16 57.93122 -4.94701 4029 ft 114 kts 26°
2026-04-25 10:17 57.93837 -4.94058 4031 ft 114 kts 26°
2026-04-25 10:17 57.94554 -4.93411 4030 ft 114 kts 26°
2026-04-25 10:17 57.95269 -4.92768 4030 ft 113 kts 26°
2026-04-25 10:17 57.95979 -4.92133 4030 ft 113 kts 26°
2026-04-25 10:18 57.96687 -4.91499 4033 ft 113 kts 26°
2026-04-25 10:18 57.97400 -4.90861 4032 ft 114 kts 26°
2026-04-25 10:18 57.98110 -4.90227 4031 ft 113 kts 26°
2026-04-25 10:18 57.98818 -4.89589 4033 ft 112 kts 26°
2026-04-25 10:19 57.99529 -4.88941 4041 ft 115 kts 26°
2026-04-25 10:19 58.00242 -4.88274 4039 ft 114 kts 26°
2026-04-25 10:19 58.00954 -4.87608 4039 ft 114 kts 26°
2026-04-25 10:19 58.01668 -4.86938 4042 ft 116 kts 26°
2026-04-25 10:20 58.02394 -4.86258 4042 ft 117 kts 26°
2026-04-25 10:20 58.03118 -4.85583 4042 ft 115 kts 26°
2026-04-25 10:20 58.03833 -4.84914 4042 ft 114 kts 26°
2026-04-25 10:20 58.04548 -4.84241 4047 ft 116 kts 26°
2026-04-25 10:21 58.05279 -4.83558 4043 ft 118 kts 26°
2026-04-25 10:21 58.06010 -4.82877 4047 ft 117 kts 26°
2026-04-25 10:21 58.06737 -4.82197 4047 ft 116 kts 26°
2026-04-25 10:21 58.07453 -4.81528 4048 ft 114 kts 26°
2026-04-25 10:22 58.08165 -4.80862 4047 ft 115 kts 26°
2026-04-25 10:22 58.08880 -4.80193 4045 ft 115 kts 26°
2026-04-25 10:22 58.09596 -4.79524 4045 ft 114 kts 26°
2026-04-25 10:22 58.10309 -4.78857 4045 ft 114 kts 26°
2026-04-25 10:23 58.11022 -4.78190 4043 ft 115 kts 26°
2026-04-25 10:23 58.11729 -4.77508 4051 ft 114 kts 26°
2026-04-25 10:23 58.12425 -4.76813 4052 ft 113 kts 26°
2026-04-25 10:23 58.13123 -4.76117 4047 ft 113 kts 26°
2026-04-25 10:24 58.13815 -4.75423 4051 ft 112 kts 26°
2026-04-25 10:24 58.14499 -4.74734 4048 ft 110 kts 26°
2026-04-25 10:24 58.15177 -4.74052 4048 ft 110 kts 26°
2026-04-25 10:24 58.15860 -4.73376 4047 ft 111 kts 26°
2026-04-25 10:25 58.16554 -4.72697 4047 ft 113 kts 26°
2026-04-25 10:25 58.17246 -4.72012 4049 ft 112 kts 26°
2026-04-25 10:25 58.17931 -4.71333 4049 ft 110 kts 26°
2026-04-25 10:25 58.18609 -4.70659 4049 ft 110 kts 26°
2026-04-25 10:26 58.19290 -4.69983 4047 ft 111 kts 26°
2026-04-25 10:26 58.19978 -4.69305 4048 ft 112 kts 26°
2026-04-25 10:26 58.20667 -4.68619 4055 ft 111 kts 26°
2026-04-25 10:26 58.21346 -4.67941 4057 ft 109 kts 26°
2026-04-25 10:27 58.22015 -4.67264 4053 ft 109 kts 26°
2026-04-25 10:27 58.22691 -4.66588 4054 ft 111 kts 26°
2026-04-25 10:27 58.23376 -4.65910 4053 ft 112 kts 26°
2026-04-25 10:27 58.24066 -4.65226 4055 ft 111 kts 26°
2026-04-25 10:28 58.24752 -4.64541 4060 ft 111 kts 26°
2026-04-25 10:28 58.25434 -4.63854 4060 ft 111 kts 26°
2026-04-25 10:28 58.26119 -4.63173 4061 ft 111 kts 26°
2026-04-25 10:28 58.26810 -4.62487 4062 ft 113 kts 25°
2026-04-25 10:29 58.27505 -4.61793 4060 ft 113 kts 26°
2026-04-25 10:29 58.28200 -4.61100 4058 ft 113 kts 26°
2026-04-25 10:29 58.28888 -4.60408 4059 ft 111 kts 26°
2026-04-25 10:29 58.29570 -4.59729 4058 ft 110 kts 26°
2026-04-25 10:30 58.30255 -4.59055 4059 ft 112 kts 26°
2026-04-25 10:30 58.30713 -4.58610 4063 ft 112 kts 26°
2026-04-25 10:30 58.31643 -4.57684 4064 ft 113 kts 25°
2026-04-25 10:30 58.32334 -4.56983 4064 ft 112 kts 25°
2026-04-25 10:31 58.33021 -4.56290 4064 ft 112 kts 26°
2026-04-25 10:31 58.33705 -4.55598 4062 ft 112 kts 26°
2026-04-25 10:31 58.34396 -4.54912 4062 ft 112 kts 25°
2026-04-25 10:31 58.35084 -4.54218 4064 ft 112 kts 26°
2026-04-25 10:32 58.35774 -4.53520 4066 ft 112 kts 26°
2026-04-25 10:32 58.36467 -4.52828 4063 ft 113 kts 26°
2026-04-25 10:32 58.37155 -4.52146 4060 ft 111 kts 27°
2026-04-25 10:32 58.37844 -4.51470 4064 ft 112 kts 25°
2026-04-25 10:33 58.38540 -4.50779 4066 ft 113 kts 25°
2026-04-25 10:33 58.39235 -4.50082 4065 ft 112 kts 26°
2026-04-25 10:33 58.39921 -4.49389 4071 ft 111 kts 26°
2026-04-25 10:33 58.40604 -4.48700 4069 ft 111 kts 26°
2026-04-25 10:34 58.41292 -4.48016 4064 ft 112 kts 26°
2026-04-25 10:34 58.41972 -4.47327 4069 ft 110 kts 26°
2026-04-25 10:34 58.42650 -4.46640 4073 ft 111 kts 26°
2026-04-25 10:34 58.43331 -4.45952 4074 ft 111 kts 26°
2026-04-25 10:35 58.44015 -4.45264 4069 ft 112 kts 26°
2026-04-25 10:35 58.44705 -4.44574 4067 ft 112 kts 26°
2026-04-25 10:35 58.45392 -4.43881 4071 ft 112 kts 26°
2026-04-25 10:35 58.46077 -4.43189 4072 ft 111 kts 26°
2026-04-25 10:36 58.46749 -4.42499 4072 ft 110 kts 26°
2026-04-25 10:36 58.47424 -4.41815 4069 ft 110 kts 26°
2026-04-25 10:36 58.48099 -4.41141 4069 ft 110 kts 25°
2026-04-25 10:36 58.48772 -4.40465 4070 ft 109 kts 27°
2026-04-25 10:37 58.49443 -4.39793 4064 ft 108 kts 26°
2026-04-25 10:37 58.50113 -4.39114 4069 ft 110 kts 27°
2026-04-25 10:37 58.50800 -4.38419 4066 ft 112 kts 31°
2026-04-25 10:37 58.51176 -4.37129 4056 ft 114 kts 67°
2026-04-25 10:38 58.51504 -4.35748 4068 ft 115 kts 61°
2026-04-25 10:38 58.51824 -4.34341 4073 ft 115 kts 60°
2026-04-25 10:38 58.52140 -4.32932 4075 ft 115 kts 59°
2026-04-25 10:38 58.52456 -4.31528 4072 ft 114 kts 60°
2026-04-25 10:39 58.52773 -4.30137 4071 ft 115 kts 60°
2026-04-25 10:39 58.53104 -4.28736 4072 ft 116 kts 61°
2026-04-25 10:39 58.53429 -4.27323 4072 ft 116 kts 62°
2026-04-25 10:39 58.53748 -4.25900 4071 ft 117 kts 61°
2026-04-25 10:40 58.54068 -4.24485 4076 ft 115 kts 59°
2026-04-25 10:40 58.54391 -4.23089 4076 ft 115 kts 61°
2026-04-25 10:40 58.54718 -4.21695 4075 ft 115 kts 59°
2026-04-25 10:40 58.54931 -4.20768 4077 ft 115 kts 61°
2026-04-25 10:41 58.55369 -4.18887 4077 ft 116 kts 60°
2026-04-25 10:41 58.55686 -4.17470 4077 ft 116 kts 60°
2026-04-25 10:41 58.56014 -4.16065 4077 ft 116 kts 62°
2026-04-25 10:41 58.56355 -4.14662 4079 ft 117 kts 60°
2026-04-25 10:42 58.56685 -4.13245 4077 ft 116 kts 61°
2026-04-25 10:42 58.57011 -4.11825 4078 ft 116 kts 61°
2026-04-25 10:42 58.57327 -4.10410 4077 ft 115 kts 60°
2026-04-25 10:42 58.57652 -4.09009 4075 ft 114 kts 62°
2026-04-25 10:43 58.57978 -4.07622 4074 ft 114 kts 61°
2026-04-25 10:43 58.58294 -4.06220 4070 ft 115 kts 68°
2026-04-25 10:43 58.58360 -4.04663 4067 ft 118 kts 83°
2026-04-25 10:43 58.58368 -4.03073 4067 ft 120 kts 85°
2026-04-25 10:44 58.58390 -4.01487 4068 ft 119 kts 81°
2026-04-25 10:44 58.58416 -3.99903 4071 ft 119 kts 83°
2026-04-25 10:44 58.58446 -3.98326 4070 ft 118 kts 84°
2026-04-25 10:44 58.58471 -3.96754 4069 ft 118 kts 84°
2026-04-25 10:45 58.58499 -3.95176 4068 ft 119 kts 82°
2026-04-25 10:45 58.58511 -3.93583 4068 ft 120 kts 85°
2026-04-25 10:45 58.58543 -3.91991 4069 ft 119 kts 81°
2026-04-25 10:45 58.58570 -3.90398 4070 ft 119 kts 83°
2026-04-25 10:46 58.58612 -3.88810 4073 ft 120 kts 84°
2026-04-25 10:46 58.58638 -3.87208 4071 ft 120 kts 84°
2026-04-25 10:46 58.58658 -3.86155 4071 ft 119 kts 82°
2026-04-25 10:46 58.58679 -3.84564 4071 ft 120 kts 82°
2026-04-25 10:47 58.58703 -3.82973 4045 ft 120 kts 82°
2026-04-25 10:47 58.58813 -3.81387 4004 ft 120 kts 75°
2026-04-25 10:47 58.58988 -3.79807 3956 ft 122 kts 71°
2026-04-25 10:47 58.59151 -3.78209 3910 ft 123 kts 73°
2026-04-25 10:48 58.59315 -3.76601 3860 ft 123 kts 74°
2026-04-25 10:48 58.59469 -3.74992 3814 ft 123 kts 75°
2026-04-25 10:48 58.59633 -3.73389 3764 ft 122 kts 75°
2026-04-25 10:48 58.59801 -3.71785 3712 ft 123 kts 73°
2026-04-25 10:49 58.59968 -3.70176 3662 ft 123 kts 75°
2026-04-25 10:49 58.60138 -3.68568 3612 ft 123 kts 73°
2026-04-25 10:49 58.60303 -3.66953 3561 ft 123 kts 75°
2026-04-25 10:49 58.60478 -3.65349 3508 ft 123 kts 73°
2026-04-25 10:50 58.60650 -3.63750 3455 ft 122 kts 74°
2026-04-25 10:50 58.60832 -3.62159 3405 ft 122 kts 73°
2026-04-25 10:50 58.61006 -3.60554 3350 ft 123 kts 73°
2026-04-25 10:50 58.61176 -3.58953 3297 ft 123 kts 74°
2026-04-25 10:51 58.61351 -3.57357 3243 ft 122 kts 72°
2026-04-25 10:51 58.61522 -3.55760 3190 ft 123 kts 75°
2026-04-25 10:51 58.61705 -3.54158 3138 ft 123 kts 72°
2026-04-25 10:51 58.61877 -3.52554 3082 ft 122 kts 75°
2026-04-25 10:52 58.62042 -3.50979 3084 ft 120 kts 74°
2026-04-25 10:52 58.62199 -3.49422 3079 ft 118 kts 74°
2026-04-25 10:52 58.62356 -3.47877 3077 ft 118 kts 75°
2026-04-25 10:52 58.62520 -3.46345 3073 ft 117 kts 74°
2026-04-25 10:53 58.62682 -3.44815 3074 ft 117 kts 73°
2026-04-25 10:53 58.62842 -3.43287 3071 ft 116 kts 73°
2026-04-25 10:53 58.62994 -3.41765 3069 ft 116 kts 74°
2026-04-25 10:53 58.63149 -3.40245 3069 ft 117 kts 74°
2026-04-25 10:54 58.63304 -3.38718 3068 ft 116 kts 75°
2026-04-25 10:54 58.63410 -3.37704 3076 ft 114 kts 74°
2026-04-25 10:54 58.63620 -3.35712 3073 ft 115 kts 73°
2026-04-25 10:54 58.63778 -3.34207 3075 ft 116 kts 74°
2026-04-25 10:55 58.63935 -3.32689 3075 ft 116 kts 75°
2026-04-25 10:55 58.64096 -3.31172 3078 ft 116 kts 75°
2026-04-25 10:55 58.64258 -3.29641 3078 ft 118 kts 74°
2026-04-25 10:55 58.64427 -3.28099 3079 ft 118 kts 73°
2026-04-25 10:56 58.64590 -3.26553 3078 ft 118 kts 73°
2026-04-25 10:56 58.64745 -3.25019 3080 ft 117 kts 75°
2026-04-25 10:56 58.64907 -3.23478 3082 ft 119 kts 74°
2026-04-25 10:56 58.65073 -3.21918 3082 ft 119 kts 75°
2026-04-25 10:57 58.65243 -3.20358 3084 ft 120 kts 74°
2026-04-25 10:57 58.65412 -3.18792 3083 ft 120 kts 75°
2026-04-25 10:57 58.65578 -3.17229 3082 ft 119 kts 74°
2026-04-25 10:57 58.65734 -3.15676 3081 ft 118 kts 73°
2026-04-25 10:58 58.66145 -3.14453 3066 ft 110 kts 26°
2026-04-25 10:58 58.66827 -3.13810 3077 ft 110 kts 25°
2026-04-25 10:58 58.67504 -3.13152 3080 ft 109 kts 25°
2026-04-25 10:58 58.68182 -3.12488 3101 ft 109 kts 25°
2026-04-25 10:59 58.68873 -3.11812 3056 ft 113 kts 25°
2026-04-25 10:59 58.69584 -3.11132 3004 ft 114 kts 25°
2026-04-25 10:59 58.70295 -3.10443 2948 ft 115 kts 25°
2026-04-25 10:59 58.71008 -3.09755 2900 ft 114 kts 25°
2026-04-25 11:00 58.71721 -3.09075 2847 ft 114 kts 25°
2026-04-25 11:00 58.72432 -3.08397 2794 ft 114 kts 25°
2026-04-25 11:00 58.73145 -3.07715 2742 ft 115 kts 25°
2026-04-25 11:00 58.73863 -3.07033 2678 ft 115 kts 25°
2026-04-25 11:01 58.74580 -3.06335 2638 ft 115 kts 25°
2026-04-25 11:01 58.75299 -3.05647 2600 ft 116 kts 25°
2026-04-25 11:01 58.76019 -3.04963 2547 ft 115 kts 25°
2026-04-25 11:01 58.76738 -3.04268 2495 ft 116 kts 25°
2026-04-25 11:02 58.77465 -3.03577 2444 ft 117 kts 25°
2026-04-25 11:02 58.78198 -3.02884 2394 ft 118 kts 25°
2026-04-25 11:02 58.78936 -3.02186 2342 ft 118 kts 25°
2026-04-25 11:02 58.79675 -3.01490 2293 ft 118 kts 25°
2026-04-25 11:03 58.80408 -3.00799 2237 ft 117 kts 25°
2026-04-25 11:03 58.81139 -3.00104 2185 ft 117 kts 25°
2026-04-25 11:03 58.81868 -2.99412 2131 ft 116 kts 25°
2026-04-25 11:03 58.82582 -2.98729 2107 ft 114 kts 25°
2026-04-25 11:04 58.83293 -2.98050 2099 ft 114 kts 25°
2026-04-25 11:04 58.83996 -2.97380 2094 ft 111 kts 25°
2026-04-25 11:04 58.84684 -2.96716 2092 ft 110 kts 25°
2026-04-25 11:04 58.85137 -2.96279 2090 ft 110 kts 25°
2026-04-25 11:05 58.86051 -2.95420 2091 ft 108 kts 25°
2026-04-25 11:05 58.86724 -2.94775 2091 ft 108 kts 25°
2026-04-25 11:05 58.87395 -2.94124 2091 ft 107 kts 25°
2026-04-25 11:05 58.88065 -2.93481 2092 ft 108 kts 25°
2026-04-25 11:06 58.88738 -2.92833 2090 ft 108 kts 25°
2026-04-25 11:06 58.89409 -2.92192 2090 ft 107 kts 25°
2026-04-25 11:06 58.90078 -2.91550 2093 ft 108 kts 25°
2026-04-25 11:06 58.90749 -2.90897 2091 ft 108 kts 25°
2026-04-25 11:07 58.91419 -2.90256 2091 ft 107 kts 25°
2026-04-25 11:07 58.92088 -2.89606 2091 ft 108 kts 25°
2026-04-25 11:07 58.92761 -2.88958 2095 ft 108 kts 25°
2026-04-25 11:07 58.93437 -2.88315 2094 ft 109 kts 25°
2026-04-25 11:08 58.94117 -2.87664 2098 ft 111 kts 25°
2026-04-25 11:08 58.94811 -2.87007 2104 ft 112 kts 25°
2026-04-25 11:08 58.95509 -2.86337 2101 ft 111 kts 25°
2026-04-25 11:08 58.96202 -2.85679 2101 ft 110 kts 25°
2026-04-25 11:09 58.96890 -2.85021 2101 ft 111 kts 25°
2026-04-25 11:09 58.97580 -2.84362 2103 ft 110 kts 25°
2026-04-25 11:09 58.98260 -2.83692 2102 ft 111 kts 25°
2026-04-25 11:09 58.98946 -2.83032 2102 ft 110 kts 25°
2026-04-25 11:10 58.99631 -2.82378 2106 ft 109 kts 25°
2026-04-25 11:10 59.00091 -2.81930 2103 ft 109 kts 25°
2026-04-25 11:10 59.00999 -2.81070 2093 ft 110 kts 25°
2026-04-25 11:10 59.01688 -2.80433 2091 ft 109 kts 25°
2026-04-25 11:11 59.02370 -2.79798 2090 ft 108 kts 25°
2026-04-25 11:11 59.03053 -2.79162 2089 ft 110 kts 25°
2026-04-25 11:11 59.03749 -2.78516 2090 ft 111 kts 25°
2026-04-25 11:11 59.04445 -2.77878 2094 ft 110 kts 25°
2026-04-25 11:12 59.05137 -2.77247 2092 ft 110 kts 25°
2026-04-25 11:12 59.05824 -2.76615 2091 ft 108 kts 25°
2026-04-25 11:12 59.06499 -2.75983 2087 ft 108 kts 25°
2026-04-25 11:12 59.07177 -2.75360 2089 ft 108 kts 25°
2026-04-25 11:13 59.07861 -2.74730 2091 ft 110 kts 25°
2026-04-25 11:13 59.08554 -2.74093 2090 ft 110 kts 25°
2026-04-25 11:13 59.09244 -2.73461 2088 ft 109 kts 25°
2026-04-25 11:13 59.09923 -2.72833 2086 ft 108 kts 25°
2026-04-25 11:14 59.10602 -2.72213 2083 ft 108 kts 25°
2026-04-25 11:14 59.11278 -2.71595 2084 ft 107 kts 25°
2026-04-25 11:14 59.11955 -2.70974 2083 ft 108 kts 25°
2026-04-25 11:14 59.12640 -2.70349 2081 ft 107 kts 25°
2026-04-25 11:15 59.13309 -2.69729 2086 ft 107 kts 25°
2026-04-25 11:15 59.13985 -2.69107 2084 ft 108 kts 25°
2026-04-25 11:15 59.14665 -2.68477 2086 ft 108 kts 25°
2026-04-25 11:15 59.15343 -2.67855 2087 ft 107 kts 25°
2026-04-25 11:16 59.16689 -2.66589 2086 ft 108 kts 25°
2026-04-25 11:16 59.17365 -2.65956 2085 ft 108 kts 25°
2026-04-25 11:16 59.18037 -2.65336 2087 ft 109 kts 25°
2026-04-25 11:17 59.18722 -2.64702 2088 ft 109 kts 25°
2026-04-25 11:17 59.19405 -2.64073 2090 ft 108 kts 25°
2026-04-25 11:17 59.20083 -2.63451 2091 ft 108 kts 25°
2026-04-25 11:17 59.20762 -2.62834 2088 ft 108 kts 25°
2026-04-25 11:18 59.21443 -2.62209 2086 ft 108 kts 25°
2026-04-25 11:18 59.22115 -2.61572 2086 ft 107 kts 26°
2026-04-25 11:18 59.22787 -2.60959 2091 ft 106 kts 25°
2026-04-25 11:18 59.23460 -2.60344 2088 ft 108 kts 25°
2026-04-25 11:19 59.24141 -2.59703 2090 ft 109 kts 25°
2026-04-25 11:19 59.24823 -2.59071 2085 ft 108 kts 25°
2026-04-25 11:19 59.25502 -2.58437 2087 ft 108 kts 25°
2026-04-25 11:19 59.26179 -2.57805 2088 ft 107 kts 25°
2026-04-25 11:20 59.26855 -2.57190 2086 ft 107 kts 25°
2026-04-25 11:20 59.27475 -2.56397 2092 ft 107 kts 36°
2026-04-25 11:20 59.28049 -2.55431 2089 ft 108 kts 38°
2026-04-25 11:20 59.28611 -2.54499 2086 ft 106 kts 37°
2026-04-25 11:21 59.29174 -2.53577 2084 ft 105 kts 36°
2026-04-25 11:21 59.29724 -2.52642 2088 ft 105 kts 37°
2026-04-25 11:21 59.30273 -2.51692 2087 ft 106 kts 37°
2026-04-25 11:21 59.30827 -2.50750 2084 ft 106 kts 37°
2026-04-25 11:22 59.31385 -2.49813 2082 ft 106 kts 37°
2026-04-25 11:22 59.31755 -2.49176 2084 ft 105 kts 37°
2026-04-25 11:22 59.32473 -2.47911 2086 ft 105 kts 37°
2026-04-25 11:22 59.33016 -2.46950 2085 ft 106 kts 38°
2026-04-25 11:23 59.33566 -2.45999 2118 ft 104 kts 38°
2026-04-25 11:23 59.34111 -2.45074 2168 ft 103 kts 36°
2026-04-25 11:23 59.34640 -2.44149 2220 ft 102 kts 38°
2026-04-25 11:23 59.35169 -2.43223 2274 ft 102 kts 37°
2026-04-25 11:24 59.35703 -2.42286 2327 ft 102 kts 37°
2026-04-25 11:24 59.36227 -2.41367 2376 ft 100 kts 37°
2026-04-25 11:24 59.36738 -2.40470 2424 ft 100 kts 37°
2026-04-25 11:24 59.37261 -2.39552 2480 ft 99 kts 38°
2026-04-25 11:25 59.37556 -2.38289 2524 ft 104 kts 63°
2026-04-25 11:25 59.37705 -2.37398 2561 ft 104 kts 64°
2026-04-25 11:25 59.37939 -2.36060 2613 ft 104 kts 64°
2026-04-25 11:25 59.38262 -2.34290 2683 ft 104 kts 63°
2026-04-25 11:26 59.38492 -2.32939 2730 ft 106 kts 66°
2026-04-25 11:26 59.38629 -2.32006 2762 ft 105 kts 65°
2026-04-25 11:26 59.38891 -2.30176 2833 ft 105 kts 65°
2026-04-25 11:26 59.39022 -2.29249 2869 ft 104 kts 66°
2026-04-25 11:27 59.39217 -2.27873 2925 ft 105 kts 65°
2026-04-25 11:27 59.39419 -2.26494 2974 ft 106 kts 67°
2026-04-25 11:27 59.39628 -2.25111 3028 ft 105 kts 65°
2026-04-25 11:27 59.39763 -2.24202 3063 ft 104 kts 66°
2026-04-25 11:28 59.40037 -2.22354 3080 ft 107 kts 66°
2026-04-25 11:28 59.40239 -2.20940 3084 ft 108 kts 66°
2026-04-25 11:28 59.40456 -2.19525 3086 ft 108 kts 64°
2026-04-25 11:28 59.40702 -2.18130 3087 ft 108 kts 63°
2026-04-25 11:29 59.40959 -2.16742 3086 ft 109 kts 64°
2026-04-25 11:29 59.41213 -2.15340 3086 ft 109 kts 63°
2026-04-25 11:29 59.41469 -2.13934 3086 ft 109 kts 63°
2026-04-25 11:29 59.41722 -2.12525 3088 ft 110 kts 62°
2026-04-25 11:30 59.41972 -2.11111 3086 ft 110 kts 64°
2026-04-25 11:30 59.42226 -2.09700 3086 ft 110 kts 63°
2026-04-25 11:30 59.42475 -2.08304 3087 ft 110 kts 64°
2026-04-25 11:30 59.42734 -2.06891 3082 ft 110 kts 62°
2026-04-25 11:31 59.42977 -2.05473 3082 ft 109 kts 64°
2026-04-25 11:31 59.43231 -2.04065 3083 ft 109 kts 63°
2026-04-25 11:31 59.43486 -2.02653 3081 ft 110 kts 63°
2026-04-25 11:31 59.43749 -2.01249 3081 ft 109 kts 62°
2026-04-25 11:32 59.44008 -1.99828 3081 ft 109 kts 62°
2026-04-25 11:32 59.44257 -1.98420 3083 ft 109 kts 63°
2026-04-25 11:32 59.44500 -1.97031 3082 ft 109 kts 63°
2026-04-25 11:32 59.44749 -1.95632 3081 ft 108 kts 63°
2026-04-25 11:33 59.45007 -1.94243 3076 ft 108 kts 63°
2026-04-25 11:33 59.45257 -1.92840 3082 ft 109 kts 63°
2026-04-25 11:33 59.45500 -1.91422 3081 ft 109 kts 62°
2026-04-25 11:33 59.45735 -1.90002 3083 ft 109 kts 60°
2026-04-25 11:34 59.46022 -1.88631 3085 ft 109 kts 59°
2026-04-25 11:34 59.46318 -1.87244 3085 ft 109 kts 59°
2026-04-25 11:34 59.46615 -1.85876 3086 ft 109 kts 58°
2026-04-25 11:34 59.46901 -1.84494 3086 ft 109 kts 59°
2026-04-25 11:35 59.47186 -1.83107 3082 ft 109 kts 59°
2026-04-25 11:35 59.47476 -1.81722 3083 ft 110 kts 58°
2026-04-25 11:35 59.47777 -1.80340 3051 ft 112 kts 59°
2026-04-25 11:35 59.48094 -1.78927 3016 ft 112 kts 59°
2026-04-25 11:36 59.48402 -1.77527 3010 ft 111 kts 59°
2026-04-25 11:36 59.48707 -1.76136 3009 ft 111 kts 60°
2026-04-25 11:36 59.49014 -1.74759 3009 ft 109 kts 57°
2026-04-25 11:36 59.49401 -1.73490 3009 ft 108 kts 51°
2026-04-25 11:37 59.49798 -1.72236 3016 ft 108 kts 51°
2026-04-25 11:37 59.50200 -1.70985 3018 ft 108 kts 51°
2026-04-25 11:37 59.50603 -1.69740 3017 ft 108 kts 50°
2026-04-25 11:37 59.51000 -1.68473 3015 ft 108 kts 51°
2026-04-25 11:38 59.51395 -1.67215 3014 ft 108 kts 51°
2026-04-25 11:38 59.51795 -1.65970 3012 ft 108 kts 51°
2026-04-25 11:38 59.52203 -1.64734 3014 ft 108 kts 50°
2026-04-25 11:38 59.52753 -1.63836 3011 ft 102 kts 25°
2026-04-25 11:39 59.53377 -1.63133 3013 ft 104 kts 26°
2026-04-25 11:39 59.54007 -1.62418 3007 ft 104 kts 26°
2026-04-25 11:39 59.54635 -1.61721 3007 ft 104 kts 26°
2026-04-25 11:39 59.55278 -1.61013 3012 ft 107 kts 26°
2026-04-25 11:40 59.55923 -1.60291 3012 ft 106 kts 26°
2026-04-25 11:40 59.56559 -1.59566 3010 ft 105 kts 26°
2026-04-25 11:40 59.57184 -1.58853 3011 ft 104 kts 26°
2026-04-25 11:40 59.57808 -1.58150 3008 ft 103 kts 26°
2026-04-25 11:41 59.58433 -1.57450 3009 ft 104 kts 26°
2026-04-25 11:41 59.59062 -1.56743 3010 ft 104 kts 26°
2026-04-25 11:41 59.59693 -1.56037 3005 ft 104 kts 26°
2026-04-25 11:41 59.60317 -1.55332 3004 ft 103 kts 26°
2026-04-25 11:42 59.60939 -1.54638 3002 ft 103 kts 26°
2026-04-25 11:42 59.61561 -1.53952 3002 ft 102 kts 26°
2026-04-25 11:42 59.62184 -1.53269 3000 ft 102 kts 25°
2026-04-25 11:42 59.62799 -1.52584 2999 ft 101 kts 26°
2026-04-25 11:43 59.63411 -1.51899 2996 ft 101 kts 26°
2026-04-25 11:43 59.64019 -1.51213 2996 ft 101 kts 26°
2026-04-25 11:43 59.64627 -1.50524 2998 ft 101 kts 26°
2026-04-25 11:43 59.65238 -1.49826 2995 ft 101 kts 26°
2026-04-25 11:44 59.65843 -1.49133 2998 ft 101 kts 26°
2026-04-25 11:44 59.66451 -1.48434 2997 ft 101 kts 26°
2026-04-25 11:44 59.67074 -1.47828 3000 ft 100 kts 19°
2026-04-25 11:44 59.67721 -1.47325 2998 ft 100 kts 19°
2026-04-25 11:45 59.68367 -1.46821 2996 ft 100 kts 19°
2026-04-25 11:45 59.69015 -1.46313 2994 ft 100 kts 19°
2026-04-25 11:45 59.69662 -1.45801 2997 ft 100 kts 19°
2026-04-25 11:45 59.70306 -1.45306 2997 ft 101 kts 19°
2026-04-25 11:46 59.70958 -1.44800 2997 ft 101 kts 19°
2026-04-25 11:46 59.71614 -1.44295 2995 ft 101 kts 19°
2026-04-25 11:46 59.72264 -1.43772 2994 ft 100 kts 19°
2026-04-25 11:46 59.72911 -1.43251 2992 ft 100 kts 19°
2026-04-25 11:47 59.73555 -1.42733 2996 ft 100 kts 20°
2026-04-25 11:47 59.74206 -1.42231 2996 ft 100 kts 19°
2026-04-25 11:47 59.74854 -1.41733 2997 ft 100 kts 19°
2026-04-25 11:47 59.75505 -1.41229 2996 ft 100 kts 19°
2026-04-25 11:48 59.76153 -1.40726 2994 ft 100 kts 19°
2026-04-25 11:48 59.76803 -1.40223 3013 ft 100 kts 19°
2026-04-25 11:48 59.77454 -1.39717 3012 ft 100 kts 19°
2026-04-25 11:48 59.78105 -1.39211 3016 ft 100 kts 19°
2026-04-25 11:49 59.78766 -1.38693 3017 ft 101 kts 19°
2026-04-25 11:49 59.79422 -1.38185 3017 ft 102 kts 19°
2026-04-25 11:49 59.80085 -1.37669 3018 ft 103 kts 19°
2026-04-25 11:49 59.80748 -1.37158 3018 ft 102 kts 19°
2026-04-25 11:50 59.81404 -1.36649 3018 ft 101 kts 19°
2026-04-25 11:50 59.82059 -1.36150 3019 ft 101 kts 19°
2026-04-25 11:50 59.82722 -1.35636 3020 ft 103 kts 19°
2026-04-25 11:50 59.83391 -1.35106 3021 ft 104 kts 19°
2026-04-25 11:51 59.84059 -1.34580 3020 ft 103 kts 19°
2026-04-25 11:51 59.84719 -1.34084 3006 ft 94 kts 19°
2026-04-25 11:51 59.85306 -1.33650 2708 ft 87 kts 21°
2026-04-25 11:51 59.85717 -1.32887 2545 ft 81 kts 43°
2026-04-25 11:52 59.86094 -1.32101 2311 ft 78 kts 36°
2026-04-25 11:52 59.86578 -1.31758 1948 ft 84 kts 342°
2026-04-25 11:52 59.86983 -1.32669 1663 ft 81 kts 314°
2026-04-25 11:52 59.87279 -1.33472 1560 ft 69 kts 316°
2026-04-25 11:53 59.87521 -1.34289 1354 ft 68 kts 309°
2026-04-25 11:53 59.87827 -1.34869 1163 ft 56 kts 356°
2026-04-25 11:53 59.88222 -1.34643 1122 ft 63 kts 30°
2026-04-25 11:53 59.88515 -1.33949 1118 ft 66 kts 44°
2026-04-25 11:54 59.88804 -1.33228 1095 ft 67 kts 37°
2026-04-25 11:54 59.89011 -1.32419 1052 ft 69 kts 72°
2026-04-25 11:54 59.88471 -1.30555 389 ft 90 kts 120°
2026-04-25 11:55 59.87980 -1.29772 63 ft 90 kts 128°
2026-04-25 11:55 59.87571 -1.29141 37 ft 61 kts 147°
2026-04-25 11:55 59.87330 -1.28813 39 ft 22 kts 149°
2026-04-25 11:55 59.87326 -1.28774 38 ft 8 kts 320°
2026-04-25 11:56 59.87372 -1.28843 38 ft 9 kts 317°
2026-04-25 11:56 59.87429 -1.28939 35 ft 12 kts 328°
2026-04-25 11:56 59.87494 -1.29026 37 ft 10 kts 322°
2026-04-25 11:56 59.87577 -1.29147 37 ft 21 kts 325°
2026-04-25 11:57 59.87683 -1.29306 41 ft 17 kts 321°
2026-04-25 11:57 59.87776 -1.29445 41 ft 15 kts 323°
2026-04-25 11:57 59.87844 -1.29565 38 ft 10 kts 281°
2026-04-25 11:57 59.87803 -1.29648 38 ft 9 kts 218°
2026-04-25 11:58 59.87769 -1.29753 38 ft 10 kts 256°
2026-04-25 11:58 59.87746 -1.29852 38 ft 5 kts 218°
2026-04-25 11:58 59.87738 -1.29850 38 ft 0 kts 129°